Skip Navigation Links Skip Navigation Links

Current Weather

San Clemente Is Nalf/Frederick Sherman Fld, San Clemente Island, Calif.

For information only: do not use for flight planning or navigation.
Latest weather
Observation time Tuesday, October 19, 2021 1:35 AM PDT
Local time Tuesday, October 19, 2021 1:47 AM PDT
Flight conditions Visual Meteorological Conditions
Winds
Wind direction West-Northwest (290°)
Wind speed 6 mph
Visibility 10 mi.
Sky condition
Ceiling unlimited
Cloud layer few clouds 2,000 ft.
Temperature 55°F
Dewpoint 50°F
Altimeter 30.01 in.Hg
Derived measurements
Relative humidity 83%
Density altitude -7 ft.
Remarks
Special weather observation.
Fully automated report.
System requires maintenance.
Automated weather observing station with precipitation discriminator.
METAR SPECI KNUC 190835Z AUTO 29005KT 10SM FEW020 13/10 A3001 RMK AO2 T01280100 $

Settings

Location code

InnerDrive.Weather 4.0.6770.0 Release CLR 4.0.30319.42000
Copyright ©2018 Inner Drive Technology. All rights reserved. Portions Copyright ©1986-2018 David Braverman.

Find weather

Site navigation


Skip Navigation Links

Place info

Page info

PayPal - The safer, easier way to pay online!

Return home.

Copyright ©2021 Inner Drive Technology. Purveyors of fine, hand-crafted computer software. Page printed 2021-10-19T08:47:34 UTC.